Florence, SC (29506)

9:08 AM EST on March 06, 2015 (GMT -0500)
Forest Hills | Change Station
CLOSE
Current Station
Personal Weather Station
Location: Florence, SC
Elevation: 115 ft
Nearby Weather Stations

Elev 115 ft 34.18 °N, 79.78 °W | Updated 12 minutes ago

Overcast
Overcast
35.8 °F
Feels Like 30 °F
N
6.8
Wind Variable Wind from NE

Today
High -- | Low -- °F
--% Chance of Precip.
Yesterday
High -- | Low -- °F
Precip. -- in
6:41 AM 6:19 PM
Full, 99% visible
Pressure 30.45 in
Visibility 10.0 miles
Clouds Mostly Cloudy 2700 ft
Overcast 5500 ft
Windchill 30 °F
Dew Point 26 °F
Humidity 68%
Rainfall in
Snow Depth Not available.
UV 1 out of 12
Pollen 6.90 out of 12
Air Quality Not available.
Flu Activity Not available.
METAR KFLO 061353Z 05013KT 10SM BKN027 OVC055 02/M04 A3046 RMK AO2 SLP312 T00171044

More Conditions Fewer Conditions

Pressure 30.45 in
Visibility 10.0 miles
Clouds Mostly Cloudy 2700 ft
Overcast 5500 ft
Windchill 30 °F
Dew Point 26 °F
Humidity 68%
Rainfall in
Snow Depth Not available.
UV 1 out of 12
Pollen 6.90 out of 12
Air Quality Not available.
Flu Activity Not available.
METAR KFLO 061353Z 05013KT 10SM BKN027 OVC055 02/M04 A3046 RMK AO2 SLP312 T00171044

More Conditions Fewer Conditions

10-Day Weather Forecast

Almanac

Astronomy

Mar. 06, 2015 Rise Set
Actual Time
Civil Twilight
Nautical Twilight
Astronomical Twilight
Moon
Length of Visible Light
Length of Day
Tomorrow will be .
, % of the Moon is Illuminated

Today's Extremes

State Highs State Lows

Community

WunderPhotos

Upload Photos

1,803,274 photos uploaded!

WunderBlogs® & News

Nearby

Air Quality

  Air Quality AQ Index Pollutant
Not available.

Snow Depth

Station Depth Elevation

Earthquake Activity

City Distance Mag. Time & Date
Minimum magnitude displayed is 2.5.

Coastal Water Temperatures

Place Temperature

Nearby Weather Stations